createdAt,value
2024-05-09T00:01:04.346Z,7.25
2024-05-09T00:06:12.607Z,6.70
2024-05-09T00:11:18.041Z,6.55
2024-05-09T00:16:23.144Z,7.07
2024-05-09T00:21:46.010Z,7.22
2024-05-09T00:26:51.228Z,7.53
2024-05-09T00:31:56.513Z,7.47
2024-05-09T00:37:09.054Z,7.38
2024-05-09T00:42:14.747Z,7.72
2024-05-09T00:47:19.877Z,7.72
2024-05-09T00:52:28.053Z,7.72
2024-05-09T00:57:33.284Z,7.63
2024-05-09T01:02:39.315Z,7.15
2024-05-09T01:07:46.928Z,7.82
2024-05-09T01:12:52.050Z,7.15
2024-05-09T01:17:57.965Z,7.35
2024-05-09T01:23:11.158Z,6.90
2024-05-09T01:28:18.893Z,7.35
2024-05-09T01:33:24.829Z,7.65
2024-05-09T01:38:32.540Z,7.40
2024-05-09T01:43:37.523Z,8.30
2024-05-09T01:48:42.635Z,7.78
2024-05-09T01:53:50.669Z,7.97
2024-05-09T01:58:56.046Z,7.97
2024-05-09T02:04:01.265Z,8.23
2024-05-09T02:09:09.089Z,8.10
2024-05-09T02:14:14.287Z,7.88
2024-05-09T02:19:19.451Z,7.97
2024-05-09T02:24:27.343Z,8.05
2024-05-09T02:29:32.692Z,8.38
2024-05-09T02:34:37.852Z,7.68
2024-05-09T02:39:45.552Z,7.70
2024-05-09T02:44:50.667Z,8.32
2024-05-09T02:49:55.802Z,7.55
2024-05-09T02:55:03.398Z,7.68
2024-05-09T03:00:15.202Z,8.07
2024-05-09T03:05:24.284Z,8.45
2024-05-09T03:10:36.209Z,8.32
2024-05-09T03:28:19.410Z,9.40
2024-05-09T03:33:29.999Z,8.77
2024-05-09T03:38:44.294Z,8.55
2024-05-09T03:43:52.007Z,8.70
2024-05-09T03:48:57.120Z,7.95
2024-05-09T03:54:02.283Z,8.30
2024-05-09T03:59:09.923Z,8.20
2024-05-09T04:04:15.048Z,6.95
2024-05-09T04:09:20.143Z,8.02
2024-05-09T04:14:27.804Z,8.18
2024-05-09T04:19:33.561Z,8.38
2024-05-09T04:24:39.607Z,8.57
2024-05-09T04:29:48.312Z,8.23
2024-05-09T04:35:18.312Z,7.93
2024-05-09T04:40:30.796Z,8.57
2024-05-09T04:45:41.375Z,7.72
2024-05-09T04:50:46.349Z,7.93
2024-05-09T04:55:51.504Z,8.52
2024-05-09T05:00:59.270Z,8.05
2024-05-09T05:06:04.457Z,8.02
2024-05-09T05:11:09.680Z,7.97
2024-05-09T05:16:20.574Z,8.48
2024-05-09T05:21:26.482Z,8.18
2024-05-09T05:26:32.404Z,8.75
2024-05-09T06:15:14.201Z,7.78
2024-05-09T06:27:08.914Z,4.82
2024-05-09T06:32:20.715Z,4.40
2024-05-09T06:38:19.242Z,4.50
2024-05-09T06:44:36.983Z,4.35
2024-05-09T06:50:23.359Z,4.50
2024-05-09T06:55:32.788Z,4.53
2024-05-09T11:09:26.696Z,5.60
2024-05-09T11:34:33.132Z,5.10
2024-05-09T12:26:06.223Z,3.80
2024-05-09T12:38:29.282Z,5.10
2024-05-09T12:43:55.840Z,4.53
2024-05-09T12:50:01.853Z,3.78
2024-05-09T12:56:28.824Z,3.03
2024-05-09T13:01:50.379Z,4.72
2024-05-09T13:06:57.324Z,4.00
2024-05-09T13:12:12.971Z,4.40
2024-05-09T16:05:30.636Z,8.43
2024-05-09T16:44:50.349Z,10.38
2024-05-09T17:08:05.934Z,9.93
2024-05-09T17:13:47.976Z,9.43
2024-05-09T18:19:43.889Z,8.40
2024-05-09T19:08:42.211Z,7.07
2024-05-09T19:14:00.159Z,6.65
2024-05-09T19:49:27.196Z,6.75
2024-05-09T19:54:32.265Z,6.95
2024-05-09T19:59:37.384Z,6.65
2024-05-09T20:04:46.640Z,7.10
2024-05-09T20:09:58.765Z,7.40
2024-05-09T20:15:04.975Z,7.50
2024-05-09T20:20:24.656Z,7.07
2024-05-09T20:25:38.411Z,7.70
2024-05-09T20:30:44.763Z,7.55
2024-05-09T20:35:55.416Z,7.68
2024-05-09T20:41:03.268Z,7.90
2024-05-09T20:46:11.855Z,7.45
2024-05-09T20:51:19.641Z,7.70
2024-05-09T20:56:24.967Z,7.85
2024-05-09T21:01:30.042Z,7.78
2024-05-09T21:30:48.207Z,7.93
2024-05-09T21:35:53.502Z,8.55
2024-05-09T21:40:58.959Z,7.88
2024-05-09T21:46:07.235Z,8.52
2024-05-09T21:51:16.779Z,8.43
2024-05-09T21:56:21.814Z,9.05
2024-05-09T22:01:29.607Z,8.38
2024-05-09T22:06:34.711Z,8.52
2024-05-09T22:11:41.135Z,8.50
2024-05-09T22:16:48.793Z,8.45
2024-05-09T22:21:55.386Z,9.25
2024-05-09T22:27:00.505Z,8.48
2024-05-09T22:32:08.615Z,8.52
2024-05-09T22:42:18.691Z,8.45
2024-05-09T22:47:26.529Z,8.63
2024-05-09T22:52:31.552Z,8.20
2024-05-09T22:57:36.662Z,8.38
2024-05-09T23:02:44.796Z,8.73
2024-05-09T23:07:49.957Z,10.02
2024-05-09T23:12:55.087Z,8.93
2024-05-09T23:18:03.034Z,9.07
2024-05-09T23:23:08.744Z,8.45
2024-05-09T23:28:14.682Z,8.63
2024-05-09T23:33:22.454Z,8.38
2024-05-09T23:38:27.514Z,8.23
2024-05-09T23:43:32.497Z,10.23
2024-05-09T23:48:40.369Z,9.95
2024-05-09T23:53:47.890Z,9.88
2024-05-09T23:58:52.971Z,9.95
